Time;durP1;ratioP1;P1;durP2;ratioP2;P2;SDS_P1;SDS_P2;PMS_P1;PMS_P2;Temp;Humidity;BMP_temperature;BMP_pressure;BME280_temperature;BME280_humidity;BME280_pressure;Samples;Min_cycle;Max_cycle;Signal;HPM_P1;HPM_P2
2023/04/27 05:16:37;;;;;;;22.90;8.40;;;;;;;5.88;85.34;96674.22;2103189;27;20565;-60
2023/04/27 05:17:39;;;;;;;18.55;8.85;;;;;;;5.88;86.17;96674.22;2089201;28;20188;-60
2023/04/27 07:00:28;;;;;;;6.55;3.25;;;;;;;9.95;65.69;96733.75;2084995;28;20563;-64
2023/04/27 07:02:50;;;;;;;9.68;3.50;;;;;;;10.55;63.98;96738.25;2084187;28;20573;-62
2023/04/27 07:03:52;;;;;;;7.85;3.42;;;;;;;10.39;61.13;96719.78;2078876;28;20197;-62
2023/04/27 07:04:54;;;;;;;12.95;3.65;;;;;;;10.83;61.36;96735.28;2078719;28;20247;-62
2023/04/27 07:05:56;;;;;;;8.65;3.13;;;;;;;11.10;60.83;96737.59;2078375;28;20584;-62
2023/04/27 07:06:57;;;;;;;8.77;3.70;;;;;;;11.14;58.57;96731.28;2070639;28;20848;-62
2023/04/27 07:07:58;;;;;;;7.82;3.60;;;;;;;11.35;59.22;96728.59;2069298;28;20198;-62
2023/04/27 07:09:07;;;;;;;15.48;3.03;;;;;;;11.62;59.59;96734.31;2070836;28;20290;-63
2023/04/27 07:10:27;;;;;;;8.93;3.22;;;;;;;11.73;59.34;96736.41;2070530;28;20231;-62
2023/04/27 07:11:28;;;;;;;12.70;3.53;;;;;;;11.80;59.25;96735.19;2070012;28;20279;-62
2023/04/27 07:12:29;;;;;;;15.60;3.47;;;;;;;12.18;57.87;96731.66;2070099;28;20196;-62
2023/04/27 07:13:31;;;;;;;8.18;2.85;;;;;;;12.38;56.39;96738.53;2070134;28;20247;-62
2023/04/27 07:14:33;;;;;;;6.05;3.42;;;;;;;12.78;55.82;96733.84;2070605;28;20290;-62
2023/04/27 07:15:35;;;;;;;8.38;3.85;;;;;;;12.97;55.17;96741.59;2070742;28;20243;-62
2023/04/27 07:16:37;;;;;;;8.55;3.60;;;;;;;12.81;55.54;96730.22;2070443;28;20308;-62
2023/04/27 07:17:39;;;;;;;8.93;3.17;;;;;;;12.83;54.86;96733.63;2069711;28;20228;-62
2023/04/27 07:18:41;;;;;;;7.60;2.95;;;;;;;13.03;53.88;96735.19;2070310;28;20887;-62
2023/04/27 07:19:44;;;;;;;6.90;2.50;;;;;;;12.97;53.61;96736.34;2070699;28;20222;-62
2023/04/27 07:20:45;;;;;;;9.27;2.72;;;;;;;12.89;53.85;96738.53;2070719;28;20208;-63
2023/04/27 07:21:46;;;;;;;9.43;3.00;;;;;;;12.82;53.86;96735.38;2069711;28;20256;-62
2023/04/27 07:22:48;;;;;;;8.98;2.90;;;;;;;12.95;54.92;96738.22;2070530;28;20709;-62
2023/04/27 07:23:49;;;;;;;5.32;2.95;;;;;;;12.98;53.31;96737.22;2068960;28;20285;-62
2023/04/27 07:24:51;;;;;;;10.48;3.03;;;;;;;12.96;53.33;96734.66;2070526;28;20220;-62
2023/04/27 07:25:53;;;;;;;9.88;2.83;;;;;;;13.13;53.54;96739.00;2070530;28;20206;-62
2023/04/27 07:26:56;;;;;;;14.75;3.28;;;;;;;12.89;54.45;96735.91;2070106;28;20614;-62
2023/04/27 07:27:58;;;;;;;8.90;3.10;;;;;;;13.36;53.39;96739.56;2070378;28;20194;-62
2023/04/27 07:28:59;;;;;;;14.63;2.92;;;;;;;13.60;51.88;96740.00;2086368;28;20250;-62
2023/04/27 07:30:08;;;;;;;8.77;2.83;;;;;;;13.62;51.18;96732.88;2084197;28;20228;-62
2023/04/27 07:31:10;;;;;;;10.13;2.22;;;;;;;13.62;49.92;96727.63;2070103;28;20202;-62
2023/04/27 07:32:12;;;;;;;7.30;3.00;;;;;;;13.50;50.76;96730.97;2070575;28;20205;-62
2023/04/27 07:33:13;;;;;;;8.60;2.97;;;;;;;13.44;50.70;96739.16;2070576;28;20194;-63
2023/04/27 07:34:15;;;;;;;7.93;2.53;;;;;;;13.28;50.74;96729.47;2070050;28;20681;-63
2023/04/27 07:35:16;;;;;;;10.50;2.72;;;;;;;13.20;50.65;96716.78;2068944;28;20225;-63
2023/04/27 07:36:18;;;;;;;7.15;2.85;;;;;;;13.28;49.96;96723.38;2069877;28;20201;-62
2023/04/27 07:37:21;;;;;;;9.75;2.90;;;;;;;13.80;49.78;96723.16;2069901;28;20661;-63
2023/04/27 07:38:23;;;;;;;9.48;3.15;;;;;;;13.41;50.49;96727.06;2069807;28;20255;-65
2023/04/27 07:39:25;;;;;;;7.32;2.70;;;;;;;13.39;49.38;96731.53;2069958;28;20198;-64
2023/04/27 07:40:27;;;;;;;6.05;2.40;;;;;;;13.52;50.30;96726.47;2069644;28;20202;-64
2023/04/27 07:41:29;;;;;;;9.50;3.03;;;;;;;13.64;49.79;96732.81;2070210;28;20431;-65
2023/04/27 07:42:30;;;;;;;8.73;2.55;;;;;;;13.62;49.68;96730.25;2070332;28;20210;-64
2023/04/27 07:43:32;;;;;;;7.55;3.10;;;;;;;13.87;48.81;96726.28;2071158;28;20674;-64
2023/04/27 07:44:35;;;;;;;5.00;2.83;;;;;;;13.51;49.49;96733.50;2069548;28;20289;-64
2023/04/27 07:45:38;;;;;;;6.60;2.58;;;;;;;13.66;50.10;96731.81;2069775;28;20365;-64
2023/04/27 07:46:39;;;;;;;10.35;2.90;;;;;;;13.73;50.14;96723.59;2069672;28;20217;-64
2023/04/27 07:47:41;;;;;;;9.20;2.47;;;;;;;13.94;49.62;96730.25;2070403;28;20708;-64
2023/04/27 07:48:43;;;;;;;7.35;2.50;;;;;;;14.10;48.26;96729.38;2070599;28;20247;-64
2023/04/27 07:49:45;;;;;;;4.72;2.30;;;;;;;13.81;48.65;96716.94;2068237;28;20714;-64
2023/04/27 07:50:47;;;;;;;9.23;2.20;;;;;;;13.86;49.07;96730.69;2070393;28;20865;-64
2023/04/27 07:51:48;;;;;;;4.80;2.42;;;;;;;13.75;48.65;96726.97;2069870;28;20221;-65
2023/04/27 07:52:52;;;;;;;7.95;2.92;;;;;;;13.96;48.54;96728.38;2070478;28;20190;-64
2023/04/27 07:53:53;;;;;;;9.07;2.80;;;;;;;13.48;50.32;96712.66;2070332;28;20194;-64
2023/04/27 07:54:55;;;;;;;5.20;2.45;;;;;;;13.60;50.37;96726.03;2068760;28;20191;-65
2023/04/27 07:55:56;;;;;;;5.35;2.95;;;;;;;13.37;50.12;96726.38;2070534;28;20233;-64
2023/04/27 07:56:57;;;;;;;6.90;2.90;;;;;;;13.37;50.80;96731.63;2072046;28;20225;-64
2023/04/27 07:57:59;;;;;;;7.18;3.25;;;;;;;13.42;50.46;96720.91;2071415;28;20232;-64
2023/04/27 07:59:00;;;;;;;7.32;3.03;;;;;;;13.57;49.36;96724.44;2070398;28;20198;-64
2023/04/27 08:00:05;;;;;;;7.97;3.00;;;;;;;13.66;48.50;96717.81;2069196;28;20764;-65
2023/04/27 08:01:07;;;;;;;4.57;2.10;;;;;;;13.48;49.88;96723.16;2068700;28;20244;-64
2023/04/27 08:02:08;;;;;;;11.13;2.85;;;;;;;13.34;50.90;96723.03;2069618;28;20241;-64
2023/04/27 08:03:21;;;;;;;9.50;3.15;;;;;;;13.65;50.29;96722.22;2070346;28;20720;-64
2023/04/27 08:04:23;;;;;;;7.97;3.20;;;;;;;13.69;50.47;96723.75;2070339;28;20202;-64
2023/04/27 08:05:25;;;;;;;5.53;3.60;;;;;;;13.77;50.21;96718.06;2068889;28;20204;-64
2023/04/27 08:06:27;;;;;;;5.53;2.78;;;;;;;13.49;49.30;96724.03;2068261;28;20221;-64
2023/04/27 08:07:30;;;;;;;10.13;2.58;;;;;;;13.54;48.36;96717.56;2069763;28;20198;-64
2023/04/27 08:08:33;;;;;;;7.80;2.88;;;;;;;13.57;46.74;96723.59;2061608;28;20257;-65
2023/04/27 08:09:34;;;;;;;5.75;2.10;;;;;;;13.79;47.04;96720.59;2068350;28;20229;-65
2023/04/27 08:10:37;;;;;;;3.70;2.13;;;;;;;13.61;47.13;96725.09;2069757;28;20198;-64
2023/04/27 08:11:38;;;;;;;8.52;2.75;;;;;;;13.38;48.77;96719.34;2069359;28;20333;-64
2023/04/27 08:12:39;;;;;;;13.80;3.05;;;;;;;13.92;49.19;96718.16;2070155;28;20225;-64
2023/04/27 08:13:41;;;;;;;12.45;3.22;;;;;;;13.95;47.67;96728.47;2067558;28;20229;-64
2023/04/27 08:14:42;;;;;;;4.65;2.30;;;;;;;14.34;46.41;96724.47;2062996;28;20229;-64
2023/04/27 08:15:44;;;;;;;5.47;2.45;;;;;;;14.25;46.98;96722.41;2063821;28;20226;-65
2023/04/27 08:16:45;;;;;;;8.95;2.45;;;;;;;14.15;47.74;96720.28;2063432;28;20218;-64
2023/04/27 08:17:47;;;;;;;5.78;2.83;;;;;;;14.03;47.65;96718.38;2064976;28;20202;-64
2023/04/27 08:18:48;;;;;;;6.22;3.30;;;;;;;13.87;47.77;96718.41;2064969;28;20201;-64
2023/04/27 08:19:50;;;;;;;8.25;3.10;;;;;;;13.74;47.88;96723.50;2061985;28;20202;-64
2023/04/27 08:20:52;;;;;;;12.77;2.80;;;;;;;13.63;47.48;96726.72;2064477;28;20195;-64
2023/04/27 08:21:53;;;;;;;5.68;2.75;;;;;;;13.97;47.07;96719.56;2063507;28;20226;-64
2023/04/27 08:22:55;;;;;;;7.47;2.75;;;;;;;13.96;47.30;96719.66;2064379;28;20250;-64
2023/04/27 08:23:56;;;;;;;5.68;3.10;;;;;;;13.97;47.95;96719.56;2063950;28;20198;-64
2023/04/27 08:24:59;;;;;;;6.40;2.20;;;;;;;14.66;47.72;96719.94;2063065;28;20199;-64
2023/04/27 08:26:00;;;;;;;6.40;2.83;;;;;;;14.65;46.53;96714.78;2064650;28;20608;-65
2023/04/27 08:27:02;;;;;;;7.72;2.55;;;;;;;14.72;46.41;96717.91;2063333;28;20230;-64
2023/04/27 08:28:04;;;;;;;6.72;2.72;;;;;;;14.92;45.78;96679.88;2066067;28;20285;-65
2023/04/27 08:29:05;;;;;;;6.70;2.30;;;;;;;15.20;45.43;96700.06;2065154;28;20696;-65
2023/04/27 08:30:24;;;;;;;10.70;2.60;;;;;;;15.40;46.69;96690.94;2063445;28;20198;-65
2023/04/27 08:31:26;;;;;;;4.18;2.53;;;;;;;16.00;46.87;96709.94;2064162;28;20202;-65
2023/04/27 08:32:28;;;;;;;5.43;1.80;;;;;;;15.68;46.37;96707.59;2064470;28;20244;-65
2023/04/27 08:33:29;;;;;;;10.38;2.70;;;;;;;15.51;44.62;96712.16;2064736;28;20198;-65
2023/04/27 08:34:31;;;;;;;5.13;2.55;;;;;;;15.47;43.43;96708.00;2064346;28;20202;-65
2023/04/27 08:35:32;;;;;;;4.47;2.45;;;;;;;15.31;44.17;96712.53;2063819;28;20206;-65
2023/04/27 08:36:34;;;;;;;6.70;2.55;;;;;;;15.00;43.85;96710.03;2064065;28;20590;-65
2023/04/27 08:37:36;;;;;;;5.97;2.10;;;;;;;14.58;43.96;96705.56;2080303;28;20599;-64
2023/04/27 08:38:37;;;;;;;10.07;2.45;;;;;;;14.92;43.87;96709.66;2071926;28;20430;-65
2023/04/27 08:39:39;;;;;;;4.28;2.20;;;;;;;14.83;44.51;96710.19;2062652;28;20257;-65
2023/04/27 08:40:42;;;;;;;6.70;2.30;;;;;;;14.56;44.43;96699.56;2064514;28;20202;-65
2023/04/27 08:41:44;;;;;;;7.97;2.25;;;;;;;14.35;44.21;96716.50;2064044;28;20222;-65
2023/04/27 08:42:59;;;;;;;5.68;2.05;;;;;;;14.56;44.63;96712.69;2064713;28;20923;-65
2023/04/27 08:44:00;;;;;;;7.80;2.70;;;;;;;14.52;44.09;96702.38;2064335;28;20708;-65
2023/04/27 08:45:06;;;;;;;7.72;2.33;;;;;;;14.67;45.05;96708.50;2062937;28;20199;-64
2023/04/27 08:46:07;;;;;;;9.02;2.58;;;;;;;14.75;44.98;96702.78;2064003;28;20210;-65
2023/04/27 08:47:09;;;;;;;6.57;2.60;;;;;;;14.70;44.33;96699.59;2064492;28;20264;-64
2023/04/27 08:48:11;;;;;;;4.25;2.00;;;;;;;14.75;45.87;96700.16;2063421;28;20289;-65
2023/04/27 08:49:12;;;;;;;5.82;2.05;;;;;;;14.81;45.42;96707.66;2064736;28;20337;-65
2023/04/27 08:50:18;;;;;;;5.03;2.30;;;;;;;15.37;46.09;96701.63;2063096;28;20291;-65
2023/04/27 08:51:20;;;;;;;6.25;2.30;;;;;;;15.07;44.21;96694.72;2065359;28;20325;-65
2023/04/27 08:52:21;;;;;;;8.50;2.45;;;;;;;15.24;44.58;96700.72;2066479;28;20214;-65
2023/04/27 08:53:23;;;;;;;8.25;2.05;;;;;;;15.16;43.84;96703.81;2063842;28;20541;-65
2023/04/27 08:54:24;;;;;;;3.90;1.90;;;;;;;15.00;44.01;96711.81;2064548;28;20214;-65
2023/04/27 08:55:26;;;;;;;10.40;2.90;;;;;;;14.79;44.93;96690.31;2062773;28;20186;-65
2023/04/27 08:56:29;;;;;;;6.20;2.53;;;;;;;14.63;43.85;96671.97;2063247;28;20226;-65
2023/04/27 08:57:31;;;;;;;4.50;2.08;;;;;;;14.84;43.78;96706.63;2071979;28;20588;-65
2023/04/27 08:58:36;;;;;;;6.15;1.92;;;;;;;14.58;44.75;96705.56;2071700;28;20292;-65
2023/04/27 08:59:43;;;;;;;8.10;3.05;;;;;;;14.94;44.95;96707.75;2063205;28;20229;-65
2023/04/27 09:00:46;;;;;;;7.35;2.45;;;;;;;14.99;46.00;96705.69;2071964;28;20237;-65
2023/04/27 09:01:49;;;;;;;6.20;2.90;;;;;;;14.51;45.98;96700.69;2071081;28;20252;-65
2023/04/27 09:02:52;;;;;;;9.05;2.67;;;;;;;14.60;46.01;96701.06;2063983;28;20213;-65
2023/04/27 09:04:06;;;;;;;9.45;3.22;;;;;;;14.63;45.11;96706.16;2064457;28;20221;-65
2023/04/27 09:05:17;;;;;;;10.90;2.35;;;;;;;14.51;45.12;96687.53;2070590;28;20205;-65
2023/04/27 09:06:31;;;;;;;6.10;2.45;;;;;;;14.64;45.18;96703.44;2068951;28;20213;-65
2023/04/27 09:07:33;;;;;;;4.72;2.45;;;;;;;15.32;44.90;96711.59;2064321;28;20280;-65
2023/04/27 09:08:48;;;;;;;4.38;2.47;;;;;;;15.68;44.25;96699.69;2064357;28;20237;-65
2023/04/27 09:09:49;;;;;;;8.68;2.85;;;;;;;14.90;44.10;96703.63;2064387;28;20232;-65
2023/04/27 09:10:52;;;;;;;7.15;2.50;;;;;;;15.00;44.16;96707.38;2063856;28;20585;-65
2023/04/27 09:11:53;;;;;;;8.95;2.30;;;;;;;15.26;44.70;96701.47;2063448;28;20226;-64
2023/04/27 09:12:59;;;;;;;7.20;2.40;;;;;;;15.88;44.52;96702.84;2064513;28;20597;-65
2023/04/27 09:14:15;;;;;;;4.22;2.05;;;;;;;16.59;43.36;96704.25;2063969;28;20199;-65
2023/04/27 09:15:16;;;;;;;7.13;1.88;;;;;;;17.12;42.64;96712.06;2064348;28;20793;-65
2023/04/27 09:16:25;;;;;;;6.50;2.60;;;;;;;17.39;42.25;96705.78;2063600;28;20198;-65
2023/04/27 09:17:27;;;;;;;10.57;2.80;;;;;;;16.83;42.53;96714.06;2071780;28;20205;-65
2023/04/27 09:18:32;;;;;;;15.18;2.83;;;;;;;17.01;42.65;96708.50;2071546;28;20282;-65
2023/04/27 09:19:34;;;;;;;9.60;2.83;;;;;;;16.71;41.58;96713.13;2064130;28;20190;-65
2023/04/27 09:20:42;;;;;;;6.88;1.90;;;;;;;16.03;42.37;96712.38;2064416;28;20249;-65
2023/04/27 09:21:47;;;;;;;6.95;2.63;;;;;;;15.90;44.25;96712.31;2063827;28;20614;-65
2023/04/27 09:22:51;;;;;;;7.70;2.13;;;;;;;16.53;44.54;96720.50;2063973;28;20271;-65
2023/04/27 09:23:54;;;;;;;5.20;2.30;;;;;;;16.88;42.73;96717.22;2063955;28;20621;-65
2023/04/27 09:24:55;;;;;;;6.68;2.08;;;;;;;16.91;41.73;96700.38;2064045;28;20206;-65
2023/04/27 09:25:59;;;;;;;5.30;1.90;;;;;;;16.84;41.74;96717.56;2063196;28;20309;-67
2023/04/27 09:27:02;;;;;;;8.13;1.98;;;;;;;16.26;42.88;96710.84;2063563;28;20229;-65
2023/04/27 09:28:03;;;;;;;5.90;2.60;;;;;;;16.84;42.40;96718.41;2063654;28;20213;-64
2023/04/27 09:29:04;;;;;;;5.80;2.58;;;;;;;16.65;42.55;96708.25;2064058;28;20194;-65
2023/04/27 09:30:13;;;;;;;6.13;2.40;;;;;;;16.53;42.19;96711.72;2062961;28;20202;-65
2023/04/27 09:31:15;;;;;;;5.82;2.70;;;;;;;17.16;41.89;96701.31;2062957;28;20232;-65
2023/04/27 09:32:19;;;;;;;4.30;2.22;;;;;;;17.69;41.52;96707.19;2064078;28;20214;-65
2023/04/27 09:33:29;;;;;;;6.88;2.45;;;;;;;17.43;41.51;96709.06;2063189;28;20240;-64
2023/04/27 09:34:41;;;;;;;7.65;2.20;;;;;;;16.79;40.84;96705.50;2064002;28;20201;-65
2023/04/27 09:35:44;;;;;;;5.30;2.70;;;;;;;15.83;41.92;96713.66;2063899;28;20567;-64
2023/04/27 09:36:47;;;;;;;7.32;1.90;;;;;;;15.25;42.85;96713.78;2063542;28;20218;-65
2023/04/27 09:37:52;;;;;;;4.47;2.72;;;;;;;16.23;42.72;96713.69;2064148;28;20288;-65
2023/04/27 09:38:54;;;;;;;6.65;2.50;;;;;;;16.57;41.89;96702.66;2064163;28;20202;-64
2023/04/27 09:39:56;;;;;;;7.47;2.72;;;;;;;16.62;41.59;96708.47;2064241;28;20293;-65
2023/04/27 09:40:58;;;;;;;8.50;2.42;;;;;;;16.81;41.68;96703.63;2063297;28;20233;-65
2023/04/27 09:42:00;;;;;;;4.45;1.90;;;;;;;17.27;42.36;96701.41;2063025;28;20237;-65
2023/04/27 09:43:02;;;;;;;4.40;2.00;;;;;;;17.82;41.32;96703.66;2064324;28;20677;-65
2023/04/27 09:44:04;;;;;;;5.55;2.40;;;;;;;17.95;41.19;96697.41;2064041;28;20211;-65
2023/04/27 09:45:06;;;;;;;8.45;2.50;;;;;;;18.40;41.99;96707.28;2063617;28;20203;-65
2023/04/27 09:46:08;;;;;;;6.40;1.90;;;;;;;18.52;41.32;96708.16;2063338;28;20244;-65
2023/04/27 09:47:09;;;;;;;4.85;1.92;;;;;;;18.27;40.89;96703.88;2063948;28;20267;-65
2023/04/27 09:48:12;;;;;;;7.75;2.42;;;;;;;18.47;40.65;96709.47;2064096;28;20205;-65
2023/04/27 09:49:16;;;;;;;7.85;2.35;;;;;;;18.48;41.15;96706.69;2063742;28;20201;-65
2023/04/27 09:50:18;;;;;;;6.70;2.88;;;;;;;18.53;40.53;96709.00;2063295;28;20534;-65
2023/04/27 09:51:19;;;;;;;11.80;2.42;;;;;;;18.76;41.41;96705.44;2062687;28;20252;-65
2023/04/27 09:52:21;;;;;;;4.03;2.30;;;;;;;18.01;39.62;96706.66;2064124;28;20564;-65
2023/04/27 09:53:29;;;;;;;7.50;2.70;;;;;;;17.13;40.69;96700.56;2063456;28;20205;-65
2023/04/27 09:54:33;;;;;;;6.95;2.60;;;;;;;17.22;40.88;96674.50;2062520;28;20205;-65
2023/04/27 09:55:40;;;;;;;9.55;2.75;;;;;;;17.55;40.68;96702.91;2064010;28;20210;-65
2023/04/27 09:56:57;;;;;;;5.35;2.47;;;;;;;18.28;40.93;96695.84;2079126;28;20255;-65
2023/04/27 09:58:20;;;;;;;9.57;1.90;;;;;;;18.08;40.65;96702.63;2075418;28;20201;-65
2023/04/27 09:59:25;;;;;;;7.35;2.72;;;;;;;17.88;41.53;96697.94;2063903;28;20260;-65
2023/04/27 10:00:47;;;;;;;9.40;2.67;;;;;;;17.94;40.37;96698.34;2064128;28;20202;-65
2023/04/27 10:01:55;;;;;;;7.53;2.28;;;;;;;16.92;41.14;96697.63;2062234;28;20218;-65
2023/04/27 10:03:14;;;;;;;3.63;2.10;;;;;;;16.95;41.95;96678.97;2063989;28;20198;-65
2023/04/27 10:04:34;;;;;;;6.72;2.75;;;;;;;18.11;41.32;96702.38;2069315;28;20205;-65
2023/04/27 10:05:57;;;;;;;9.68;2.20;;;;;;;18.01;40.10;96704.00;2062137;28;20543;-65
2023/04/27 10:07:04;;;;;;;6.75;2.10;;;;;;;18.24;41.74;96704.94;2063728;28;20713;-65
2023/04/27 10:08:06;;;;;;;10.25;2.80;;;;;;;19.02;41.90;96696.47;2063943;28;20263;-65
2023/04/27 10:09:09;;;;;;;5.90;2.70;;;;;;;19.65;39.88;96702.06;2064188;28;20209;-65
2023/04/27 10:10:17;;;;;;;8.73;2.83;;;;;;;19.93;39.25;96696.38;2064147;28;20199;-63
2023/04/27 10:11:19;;;;;;;6.22;2.20;;;;;;;20.02;38.76;96706.22;2063603;28;20376;-63
2023/04/27 10:12:26;;;;;;;12.68;3.00;;;;;;;19.90;37.55;96698.31;2063788;28;20579;-63
2023/04/27 10:13:30;;;;;;;4.35;2.22;;;;;;;20.06;39.02;96697.03;2063781;28;20206;-63
2023/04/27 10:14:31;;;;;;;7.05;2.60;;;;;;;20.88;39.25;96708.81;2070206;28;20198;-63
2023/04/27 10:15:38;;;;;;;11.10;2.70;;;;;;;21.41;39.20;96698.97;2071257;28;20221;-63
2023/04/27 10:16:47;;;;;;;9.18;2.22;;;;;;;21.63;37.90;96700.63;2062892;28;20217;-63
2023/04/27 10:17:51;;;;;;;7.15;2.58;;;;;;;21.62;37.77;96693.63;2066396;28;20881;-63
2023/04/27 10:18:54;;;;;;;7.60;2.45;;;;;;;21.05;37.11;96699.38;2064432;28;20657;-63
2023/04/27 10:19:59;;;;;;;8.27;2.55;;;;;;;20.46;37.41;96701.69;2066724;28;20225;-64
2023/04/27 10:21:10;;;;;;;7.68;2.88;;;;;;;19.77;37.89;96700.25;2065557;28;20710;-63
2023/04/27 10:22:12;;;;;;;11.45;3.85;;;;;;;18.06;39.75;96701.88;2062622;28;20222;-63
2023/04/27 10:23:25;;;;;;;4.95;2.10;;;;;;;17.88;40.21;96698.75;2063867;28;20226;-63
2023/04/27 10:24:43;;;;;;;7.53;3.00;;;;;;;17.43;41.65;96702.00;2063710;28;20222;-63
2023/04/27 10:25:45;;;;;;;9.05;2.60;;;;;;;17.61;41.22;96704.25;2062683;28;20253;-63
2023/04/27 10:26:47;;;;;;;5.78;3.05;;;;;;;17.57;40.82;96705.44;2059881;28;20570;-63
2023/04/27 10:27:51;;;;;;;11.18;2.88;;;;;;;18.50;40.20;96702.16;2063411;28;20195;-63
2023/04/27 10:29:07;;;;;;;10.40;3.60;;;;;;;19.01;40.35;96697.44;2063595;28;20284;-63
2023/04/27 10:30:10;;;;;;;4.72;2.63;;;;;;;19.62;39.50;96698.81;2063043;28;20237;-63
2023/04/27 10:31:13;;;;;;;7.60;2.65;;;;;;;19.32;40.09;96697.66;2061674;28;20248;-63
2023/04/27 10:32:24;;;;;;;11.30;3.53;;;;;;;18.37;42.05;96696.09;2063683;28;20202;-63
2023/04/27 10:33:25;;;;;;;11.05;4.43;;;;;;;19.11;43.22;96708.13;2062751;28;20201;-63
2023/04/27 10:34:27;;;;;;;11.75;3.78;;;;;;;19.59;42.39;96707.84;2063539;28;20881;-63
2023/04/27 10:35:39;;;;;;;9.25;3.78;;;;;;;20.62;40.62;96701.25;2063652;28;20206;-63
2023/04/27 10:36:41;;;;;;;9.90;3.78;;;;;;;21.13;40.78;96685.47;2061779;28;20434;-63
2023/04/27 10:37:42;;;;;;;4.50;2.65;;;;;;;21.03;40.57;96694.22;2063841;28;20206;-63
2023/04/27 10:38:44;;;;;;;8.38;2.88;;;;;;;21.38;40.17;96692.09;2063603;28;20198;-63
2023/04/27 10:39:46;;;;;;;12.23;2.97;;;;;;;21.46;40.14;96691.47;2063682;28;20202;-63
2023/04/27 10:41:13;;;;;;;9.35;3.70;;;;;;;21.43;40.41;96687.22;2062397;28;20711;-63
2023/04/27 10:42:27;;;;;;;10.27;3.13;;;;;;;21.79;39.87;96690.28;2063193;28;20609;-63
2023/04/27 10:43:30;;;;;;;6.78;2.95;;;;;;;21.80;39.39;96691.13;2062619;28;20206;-63
2023/04/27 10:44:35;;;;;;;6.43;2.97;;;;;;;22.09;38.62;96690.31;2063777;28;20238;-63
2023/04/27 10:45:37;;;;;;;8.65;3.03;;;;;;;21.60;39.28;96684.94;2063848;28;20229;-63
2023/04/27 10:46:49;;;;;;;9.35;3.08;;;;;;;21.73;37.97;96690.00;2062598;28;20337;-63
2023/04/27 10:47:57;;;;;;;17.05;3.75;;;;;;;22.11;37.48;96693.69;2063215;28;20669;-63
2023/04/27 10:48:58;;;;;;;10.07;3.60;;;;;;;22.31;37.38;96697.19;2063445;28;20700;-63
2023/04/27 10:50:03;;;;;;;6.93;2.92;;;;;;;21.21;38.16;96685.63;2062685;28;20254;-64
2023/04/27 10:51:05;;;;;;;5.80;2.70;;;;;;;21.93;38.07;96693.50;2063464;28;20198;-64
2023/04/27 10:52:07;;;;;;;16.67;3.30;;;;;;;21.64;37.91;96689.84;2062558;28;20612;-64
2023/04/27 10:53:09;;;;;;;9.00;3.13;;;;;;;21.97;38.85;96684.31;2063271;28;20212;-64
2023/04/27 10:54:11;;;;;;;5.05;2.58;;;;;;;21.68;38.94;96679.78;2063516;28;20229;-64
2023/04/27 10:55:21;;;;;;;11.50;4.03;;;;;;;22.31;38.55;96697.19;2063425;28;20701;-64
2023/04/27 10:56:23;;;;;;;8.25;2.60;;;;;;;21.88;39.03;96666.50;2062407;28;20194;-63
2023/04/27 10:57:25;;;;;;;9.02;3.03;;;;;;;21.99;38.65;96692.97;2063060;28;20231;-64
2023/04/27 10:58:27;;;;;;;7.53;3.30;;;;;;;22.09;37.67;96693.81;2063147;28;20202;-64
2023/04/27 10:59:50;;;;;;;9.07;3.25;;;;;;;21.83;38.12;96690.88;2063667;28;20291;-64
2023/04/27 11:00:52;;;;;;;10.40;3.00;;;;;;;21.84;39.09;96693.38;2063403;28;20592;-64
2023/04/27 11:01:56;;;;;;;9.40;3.10;;;;;;;22.32;37.08;96694.38;2060792;28;20238;-64
2023/04/27 11:03:17;;;;;;;6.05;2.80;;;;;;;21.88;36.63;96685.97;2063418;28;20639;-64
2023/04/27 11:04:19;;;;;;;7.80;2.40;;;;;;;21.03;36.74;96693.41;2063480;28;20194;-65
2023/04/27 11:05:28;;;;;;;8.05;2.83;;;;;;;19.84;38.38;96690.84;2062200;28;20801;-64
2023/04/27 11:06:33;;;;;;;10.82;3.42;;;;;;;18.69;39.07;96685.72;2061119;28;20772;-64
2023/04/27 11:07:35;;;;;;;7.03;3.08;;;;;;;17.71;41.48;96691.22;2063628;28;20530;-64
2023/04/27 11:08:43;;;;;;;7.30;3.28;;;;;;;17.87;42.43;96691.78;2062572;28;20202;-64
2023/04/27 11:09:47;;;;;;;10.82;3.38;;;;;;;17.23;41.71;96686.72;2063437;28;20688;-63
2023/04/27 11:10:51;;;;;;;7.85;3.50;;;;;;;17.48;41.96;96677.06;2063603;28;20530;-63
2023/04/27 11:11:52;;;;;;;10.98;3.38;;;;;;;18.59;40.35;96682.09;2061918;28;20791;-64
2023/04/27 11:12:55;;;;;;;11.57;2.85;;;;;;;18.96;40.62;96683.72;2063484;28;20198;-64
2023/04/27 11:13:57;;;;;;;9.77;3.40;;;;;;;18.29;40.79;96675.53;2063734;28;20209;-64
2023/04/27 11:14:58;;;;;;;10.73;3.47;;;;;;;18.69;41.36;96683.06;2063067;28;20312;-64
2023/04/27 11:16:00;;;;;;;9.25;3.22;;;;;;;19.20;40.80;96673.84;2063462;28;20234;-64
2023/04/27 11:17:03;;;;;;;6.55;2.85;;;;;;;20.62;39.13;96672.06;2062674;28;20218;-64
2023/04/27 11:18:05;;;;;;;8.02;2.50;;;;;;;20.56;39.16;96678.72;2062812;28;20575;-64
2023/04/27 11:19:07;;;;;;;9.63;3.13;;;;;;;21.36;38.70;96670.19;2063459;28;20210;-64
2023/04/27 11:20:08;;;;;;;10.27;2.58;;;;;;;22.07;38.28;96678.97;2063574;28;20224;-64
2023/04/27 11:21:13;;;;;;;5.75;2.95;;;;;;;22.18;37.37;96679.69;2062310;28;20225;-64
2023/04/27 11:22:18;;;;;;;4.80;2.15;;;;;;;22.26;37.53;96678.13;2063172;28;20194;-64
2023/04/27 11:23:35;;;;;;;12.85;3.15;;;;;;;22.43;38.33;96677.44;2062893;28;20195;-64
2023/04/27 11:24:45;;;;;;;15.13;3.17;;;;;;;23.07;36.59;96671.56;2070743;28;20259;-64
2023/04/27 11:25:47;;;;;;;5.43;2.38;;;;;;;22.95;36.06;96677.06;2068286;28;20685;-65
2023/04/27 11:26:52;;;;;;;8.20;3.28;;;;;;;23.17;36.08;96680.38;2062834;28;20759;-64
2023/04/27 11:27:53;;;;;;;8.70;3.17;;;;;;;23.21;36.08;96681.78;2064613;28;20214;-64
2023/04/27 11:28:59;;;;;;;6.40;3.10;;;;;;;23.04;35.37;96680.66;2064972;28;20292;-64
2023/04/27 11:30:01;;;;;;;15.27;3.08;;;;;;;23.47;35.24;96689.91;2063321;28;20666;-64
2023/04/27 11:31:05;;;;;;;8.48;3.92;;;;;;;20.58;39.16;96685.69;2063014;28;20811;-64
2023/04/27 11:32:06;;;;;;;7.57;3.45;;;;;;;19.73;38.53;96688.19;2061907;28;20705;-64
2023/04/27 11:33:08;;;;;;;11.82;3.03;;;;;;;21.18;39.09;96686.75;2063259;28;20557;-64
2023/04/27 11:34:14;;;;;;;6.78;3.30;;;;;;;20.48;37.71;96691.78;2063046;28;20246;-64
2023/04/27 11:35:17;;;;;;;8.23;3.30;;;;;;;18.78;40.03;96686.81;2062526;28;20190;-64
2023/04/27 11:36:21;;;;;;;11.60;3.88;;;;;;;17.69;42.54;96693.16;2062430;28;20723;-64
2023/04/27 11:37:25;;;;;;;11.18;3.25;;;;;;;19.79;40.22;96686.88;2063667;28;20206;-64
2023/04/27 11:38:32;;;;;;;13.07;3.83;;;;;;;21.07;38.78;96684.19;2064077;28;20203;-64
2023/04/27 11:39:37;;;;;;;9.57;4.25;;;;;;;19.56;38.76;96684.28;2063018;28;20241;-64
2023/04/27 11:40:40;;;;;;;9.75;3.20;;;;;;;19.35;39.85;96681.53;2063444;28;20202;-65
2023/04/27 11:41:45;;;;;;;5.15;2.50;;;;;;;20.21;40.46;96671.06;2061943;28;20233;-65
2023/04/27 11:42:56;;;;;;;6.50;2.50;;;;;;;20.19;40.95;96673.03;2063077;28;20202;-64
2023/04/27 11:44:07;;;;;;;8.02;3.00;;;;;;;20.31;40.62;96677.28;2063606;28;20889;-64
2023/04/27 11:45:10;;;;;;;6.90;2.95;;;;;;;20.58;40.35;96673.28;2062918;28;20270;-64
2023/04/27 11:46:12;;;;;;;15.77;3.72;;;;;;;20.86;40.15;96673.59;2062014;28;20900;-65
2023/04/27 11:47:20;;;;;;;12.50;3.47;;;;;;;20.73;40.20;96678.28;2064808;28;20222;-65
2023/04/27 11:48:22;;;;;;;9.40;2.70;;;;;;;21.31;39.65;96672.41;2065087;28;20651;-65
2023/04/27 11:49:24;;;;;;;8.60;2.53;;;;;;;21.76;38.67;96661.31;2062278;28;20241;-65
2023/04/27 11:50:26;;;;;;;9.23;3.47;;;;;;;21.18;37.58;96675.28;2064157;28;20634;-64
2023/04/27 11:51:28;;;;;;;11.52;3.00;;;;;;;21.64;38.68;96675.72;2064335;28;20263;-65
2023/04/27 11:52:31;;;;;;;11.77;3.55;;;;;;;19.13;39.22;96667.34;2065139;28;20199;-65
2023/04/27 11:53:35;;;;;;;19.30;3.63;;;;;;;18.11;42.40;96675.94;2065018;28;20225;-64
2023/04/27 11:54:36;;;;;;;6.70;3.05;;;;;;;18.95;40.17;96674.13;2065032;28;20202;-64
2023/04/27 11:55:40;;;;;;;8.45;3.05;;;;;;;19.23;40.54;96668.31;2064948;28;20205;-65
2023/04/27 11:56:41;;;;;;;8.07;3.55;;;;;;;20.11;39.50;96670.16;2064281;28;20214;-64
2023/04/27 11:57:43;;;;;;;12.88;3.28;;;;;;;20.50;38.73;96678.41;2064276;28;20206;-65
2023/04/27 11:58:44;;;;;;;6.82;3.05;;;;;;;19.87;39.74;96666.78;2064063;28;20286;-64
2023/04/27 11:59:46;;;;;;;6.75;2.55;;;;;;;20.14;40.21;96667.28;2064979;28;20198;-64
2023/04/27 12:00:48;;;;;;;6.18;2.80;;;;;;;20.44;40.47;96669.13;2064748;28;20766;-64